Visit The New, Modern Unix Linux Community

Search Results

Search: Posts Made By: anuajay1988
Forum: Red Hat 03-02-2012
6,095
Posted By anuajay1988
Problem in installing wine on rhel 6-64bit
I have installled and configured wine on rhel 6 - 64bit system...

When i run wine command i faced a problem :
wine : could not exec wineserver

and when i run wineserver command i got the...
650
Posted By anuajay1988
i understand dat but i need help in writing a...
i understand dat but i need help in writing a shell scripting for dat only....
650
Posted By anuajay1988
help in shell scripting
I am downloading some files sequentially from a ftp server with the help of a shell script using wget.... sometimes it happens that a particular file is not uploaded at that time n will be uploaded...
606
Posted By anuajay1988
scripting help
I have a file having following lines :

201110180036 METAR PABL 180036Z AUTO 13005KT 10SM SCT037 BKN045 OVC055 01/M02 A2986 RMK PNO=

201110172350 METAR ENSB 172350Z 12010KT 9999 FEW030...
1,180
Posted By anuajay1988
it didn't worked.as it is a big prob... let me...
it didn't worked.as it is a big prob... let me break it into pieces... let me tell u step by step.... yhis is the first step for you...

I have a file having following lines :

201110180036 METAR...
639
Posted By anuajay1988
it doesn't worked at alll... but thanx... i...
it doesn't worked at alll... but thanx...
i have solved it my own...
1,180
Posted By anuajay1988
201110180036 METAR PABL 180036Z AUTO 13005KT 10SM...
201110180036 METAR PABL 180036Z AUTO 13005KT 10SM SCT037 BKN045 OVC055 01/M02 A2986 RMK AO1 PNO=
the first tab is date and time.... which is to be inserted below in time tag.....
third tag is...
639
Posted By anuajay1988
Scripting help
frnds... i am having a folder containing many files eg:

2011-10-08T0100_svir.jpg
2011-10-08T0200_svir.jpg
2011-10-08T0300_svir.jpg

2011-10-08T0100_svwv.jpg
2011-10-08T0200_svwv.jpg


i...
1,180
Posted By anuajay1988
Need help in scripting...
hi friends.... thanx for you earlier support....
i need one more help from u guys...

I have a text file containing some data...

201110180036 METAR PABL 180036Z AUTO 13005KT 10SM SCT037 BKN045...
686
Posted By anuajay1988
need help in shell scripting....
2011/10/10 06:30
VIDP 100630Z 30007KT 2500 HZ NSC 32/17 Q1014 NOSIG
2011/10/10 06:55
OPLA 100655Z 32005KT 5000 HZ FEW100 33/18 Q1015 NOSIG A29.98
2011/08/26 12:00
VEAT 261200Z 00000KT 4000 HZ...
2,924
Posted By anuajay1988
mainly i want to use the following script in...
mainly i want to use the following script in linux (shell scriipt)

<script language="Javascript1.2">
function add_output(text)
{
document.encoded.decreport.value =...
2,924
Posted By anuajay1988
i want that the work which is done by this html...
i want that the work which is done by this html page (javascript) can be done by making a shell script....
2,924
Posted By anuajay1988
want to use javascript as shell script
<html>

<head>
<title>Weather & Aviation Page - METAR decoder</title>
<meta name="Title" content="Weather & Aviation Page - METAR decoder">
<meta name="Keywords" content="METAR decoder">
<meta...
954
Posted By anuajay1988
thanx bro... ---------- Post updated at...
thanx bro...

---------- Post updated at 01:53 AM ---------- Previous update was at 01:51 AM ----------

hi frnds... one more prob is dere....
i have a text file containing following data:
...
954
Posted By anuajay1988
thanx dear... it worked... I want to do One...
thanx dear... it worked...
I want to do One more thing... i have many text files with different names.. i want to copy the content of all the files in a single text file... thanx
954
Posted By anuajay1988
help in shell
hi guys...
i have 15-20 directories having 15-20 txt files in each.
these files are being passed one by one as an argument in a script.

i need a script whch shud pass all the files of each...
903
Posted By anuajay1988
thanx buddy... it worked...
thanx buddy... it worked...
903
Posted By anuajay1988
yes, you are right. but it should not replace if...
yes, you are right. but it should not replace if it is different ... it should check dat this string is dere or not at third parameter after METAR OPMT but before 13010kt. If it is there then no...
903
Posted By anuajay1988
need help in shell scripting
i have a file which has the following contents:
Dated: 8/16/2011



Time : 0900


==============


--------------------------------------
Data Upload Time...
869
Posted By anuajay1988
thanx buddyyyy... it worked..
thanx buddyyyy... it worked..
869
Posted By anuajay1988
[Solved] need help in shell scripting
Hi Friends,

Please help me with the following problem:
I have a text file with the following lines:
Dated: 8/11/2011

<br>
Time : 0000
<br>
==============...
Showing results 1 to 21 of 21

 

Featured Tech Videos

All times are GMT -4. The time now is 11:55 PM.
Unix & Linux Forums Content Copyright 1993-2020. All Rights Reserved.
Privacy Policy